sensor_id;sensor_type;location;lat;lon;timestamp;pressure;altitude;pressure_sealevel;temperature;humidity
23953;BME280;12163;49.316;6.092;2023-04-08T00:00:54;99883.47;;;7.10;79.86
23953;BME280;12163;49.316;6.092;2023-04-08T00:03:21;99890.00;;;7.14;79.58
23953;BME280;12163;49.316;6.092;2023-04-08T00:05:48;99884.63;;;7.14;79.16
23953;BME280;12163;49.316;6.092;2023-04-08T00:08:14;99897.19;;;7.08;78.99
23953;BME280;12163;49.316;6.092;2023-04-08T00:10:41;99889.88;;;7.04;79.06
23953;BME280;12163;49.316;6.092;2023-04-08T00:13:07;99889.00;;;6.98;79.05
23953;BME280;12163;49.316;6.092;2023-04-08T00:15:35;99892.47;;;6.94;79.35
23953;BME280;12163;49.316;6.092;2023-04-08T00:18:02;99889.16;;;6.87;79.15
23953;BME280;12163;49.316;6.092;2023-04-08T00:20:29;99890.69;;;6.78;79.09
23953;BME280;12163;49.316;6.092;2023-04-08T00:22:55;99885.84;;;6.75;79.28
23953;BME280;12163;49.316;6.092;2023-04-08T00:25:22;99884.72;;;6.71;79.65
23953;BME280;12163;49.316;6.092;2023-04-08T00:27:51;99892.72;;;6.66;79.42
23953;BME280;12163;49.316;6.092;2023-04-08T00:30:17;99884.03;;;6.59;79.55
23953;BME280;12163;49.316;6.092;2023-04-08T00:32:44;99888.78;;;6.52;79.43
23953;BME280;12163;49.316;6.092;2023-04-08T00:35:11;99892.47;;;6.46;79.23
23953;BME280;12163;49.316;6.092;2023-04-08T00:37:38;99892.66;;;6.40;79.85
23953;BME280;12163;49.316;6.092;2023-04-08T00:40:05;99896.06;;;6.35;79.66
23953;BME280;12163;49.316;6.092;2023-04-08T00:42:32;99892.84;;;6.33;80.06
23953;BME280;12163;49.316;6.092;2023-04-08T00:44:58;99894.97;;;6.31;80.22
23953;BME280;12163;49.316;6.092;2023-04-08T00:47:25;99899.22;;;6.27;79.81
23953;BME280;12163;49.316;6.092;2023-04-08T00:49:51;99894.34;;;6.24;79.89
23953;BME280;12163;49.316;6.092;2023-04-08T00:52:18;99891.56;;;6.19;79.76
23953;BME280;12163;49.316;6.092;2023-04-08T00:54:45;99892.06;;;6.16;80.25
23953;BME280;12163;49.316;6.092;2023-04-08T00:57:12;99892.56;;;6.13;80.53
23953;BME280;12163;49.316;6.092;2023-04-08T00:59:39;99900.88;;;6.12;80.14
23953;BME280;12163;49.316;6.092;2023-04-08T01:07:43;99901.00;;;6.00;80.06
23953;BME280;12163;49.316;6.092;2023-04-08T01:10:17;99900.16;;;6.00;79.95
23953;BME280;12163;49.316;6.092;2023-04-08T01:12:54;99894.47;;;5.96;80.25
23953;BME280;12163;49.316;6.092;2023-04-08T01:15:23;99896.59;;;5.94;80.13
23953;BME280;12163;49.316;6.092;2023-04-08T01:17:52;99893.84;;;5.89;80.21
23953;BME280;12163;49.316;6.092;2023-04-08T01:20:20;99896.19;;;5.86;80.51
23953;BME280;12163;49.316;6.092;2023-04-08T01:25:31;99903.00;;;5.77;80.60
23953;BME280;12163;49.316;6.092;2023-04-08T01:27:59;99898.94;;;5.74;80.31
23953;BME280;12163;49.316;6.092;2023-04-08T01:30:27;99899.44;;;5.71;80.52
23953;BME280;12163;49.316;6.092;2023-04-08T01:32:56;99896.47;;;5.68;80.49
23953;BME280;12163;49.316;6.092;2023-04-08T01:35:23;99896.13;;;5.64;80.53
23953;BME280;12163;49.316;6.092;2023-04-08T01:37:51;99891.28;;;5.61;80.15
23953;BME280;12163;49.316;6.092;2023-04-08T01:40:19;99900.09;;;5.62;80.40
23953;BME280;12163;49.316;6.092;2023-04-08T01:42:49;99909.69;;;5.58;80.32
23953;BME280;12163;49.316;6.092;2023-04-08T01:45:18;99913.06;;;5.53;80.63
23953;BME280;12163;49.316;6.092;2023-04-08T01:47:47;99906.59;;;5.49;80.51
23953;BME280;12163;49.316;6.092;2023-04-08T01:50:15;99905.47;;;5.45;80.60
23953;BME280;12163;49.316;6.092;2023-04-08T01:52:43;99910.47;;;5.42;80.29
23953;BME280;12163;49.316;6.092;2023-04-08T01:55:10;99903.75;;;5.39;80.83
23953;BME280;12163;49.316;6.092;2023-04-08T01:57:38;99909.34;;;5.38;80.67
23953;BME280;12163;49.316;6.092;2023-04-08T02:00:11;99908.22;;;5.34;80.92
23953;BME280;12163;49.316;6.092;2023-04-08T02:02:41;99916.97;;;5.29;81.04
23953;BME280;12163;49.316;6.092;2023-04-08T02:05:08;99906.75;;;5.26;80.61
23953;BME280;12163;49.316;6.092;2023-04-08T02:07:35;99908.06;;;5.24;80.76
23953;BME280;12163;49.316;6.092;2023-04-08T02:10:02;99907.22;;;5.23;80.84
23953;BME280;12163;49.316;6.092;2023-04-08T02:12:29;99914.47;;;5.23;81.26
23953;BME280;12163;49.316;6.092;2023-04-08T02:14:56;99912.59;;;5.23;81.25
23953;BME280;12163;49.316;6.092;2023-04-08T02:20:17;99912.59;;;5.23;81.49
23953;BME280;12163;49.316;6.092;2023-04-08T02:23:20;99915.53;;;5.22;81.29
23953;BME280;12163;49.316;6.092;2023-04-08T02:25:48;99915.25;;;5.23;81.62
23953;BME280;12163;49.316;6.092;2023-04-08T02:28:17;99913.88;;;5.21;81.51
23953;BME280;12163;49.316;6.092;2023-04-08T02:30:49;99918.41;;;5.20;81.94
23953;BME280;12163;49.316;6.092;2023-04-08T02:33:21;99914.91;;;5.20;81.77
23953;BME280;12163;49.316;6.092;2023-04-08T02:35:49;99919.00;;;5.22;81.97
23953;BME280;12163;49.316;6.092;2023-04-08T02:38:17;99915.25;;;5.23;81.91
23953;BME280;12163;49.316;6.092;2023-04-08T02:40:43;99916.31;;;5.22;82.24
23953;BME280;12163;49.316;6.092;2023-04-08T02:43:10;99920.88;;;5.22;82.43
23953;BME280;12163;49.316;6.092;2023-04-08T02:45:41;99922.16;;;5.19;82.19
23953;BME280;12163;49.316;6.092;2023-04-08T02:48:08;99917.03;;;5.18;81.98
23953;BME280;12163;49.316;6.092;2023-04-08T02:50:35;99921.00;;;5.15;81.90
23953;BME280;12163;49.316;6.092;2023-04-08T02:53:02;99923.13;;;5.13;82.26
23953;BME280;12163;49.316;6.092;2023-04-08T02:55:29;99924.19;;;5.12;81.79
23953;BME280;12163;49.316;6.092;2023-04-08T02:57:56;99921.97;;;5.09;82.50
23953;BME280;12163;49.316;6.092;2023-04-08T03:00:22;99921.97;;;5.09;82.13
23953;BME280;12163;49.316;6.092;2023-04-08T03:02:49;99921.97;;;5.09;82.24
23953;BME280;12163;49.316;6.092;2023-04-08T03:05:16;99917.66;;;5.08;82.34
23953;BME280;12163;49.316;6.092;2023-04-08T03:07:43;99924.06;;;5.07;82.46
23953;BME280;12163;49.316;6.092;2023-04-08T03:10:09;99931.03;;;5.08;82.24
23953;BME280;12163;49.316;6.092;2023-04-08T03:12:36;99931.50;;;5.05;82.05
23953;BME280;12163;49.316;6.092;2023-04-08T03:15:03;99919.69;;;5.01;81.92
23953;BME280;12163;49.316;6.092;2023-04-08T03:17:29;99922.28;;;4.96;82.29
23953;BME280;12163;49.316;6.092;2023-04-08T03:20:02;99923.56;;;4.94;82.56
23953;BME280;12163;49.316;6.092;2023-04-08T03:22:30;99924.84;;;4.92;82.38
23953;BME280;12163;49.316;6.092;2023-04-08T03:24:57;99931.00;;;4.92;82.73
23953;BME280;12163;49.316;6.092;2023-04-08T03:27:23;99930.22;;;4.92;82.27
23953;BME280;12163;49.316;6.092;2023-04-08T03:29:50;99933.38;;;4.89;82.39
23953;BME280;12163;49.316;6.092;2023-04-08T03:32:18;99927.66;;;4.85;82.29
23953;BME280;12163;49.316;6.092;2023-04-08T03:34:45;99927.66;;;4.85;82.51
23953;BME280;12163;49.316;6.092;2023-04-08T03:37:11;99929.50;;;4.85;82.73
23953;BME280;12163;49.316;6.092;2023-04-08T03:39:38;99936.97;;;4.83;82.61
23953;BME280;12163;49.316;6.092;2023-04-08T03:42:05;99936.16;;;4.82;82.96
23953;BME280;12163;49.316;6.092;2023-04-08T03:44:31;99938.03;;;4.82;83.08
23953;BME280;12163;49.316;6.092;2023-04-08T03:46:58;99949.28;;;4.84;83.30
23953;BME280;12163;49.316;6.092;2023-04-08T03:49:24;99949.28;;;4.84;82.74
23953;BME280;12163;49.316;6.092;2023-04-08T03:51:51;99941.03;;;4.85;82.83
23953;BME280;12163;49.316;6.092;2023-04-08T03:54:17;99934.88;;;4.85;83.34
23953;BME280;12163;49.316;6.092;2023-04-08T03:56:44;99943.47;;;4.87;83.25
23953;BME280;12163;49.316;6.092;2023-04-08T03:59:10;99946.72;;;4.89;83.02
23953;BME280;12163;49.316;6.092;2023-04-08T04:01:37;99930.69;;;4.89;83.30
23953;BME280;12163;49.316;6.092;2023-04-08T04:04:07;99938.09;;;4.87;83.14
23953;BME280;12163;49.316;6.092;2023-04-08T04:06:34;99941.03;;;4.85;83.06
23953;BME280;12163;49.316;6.092;2023-04-08T04:09:00;99938.59;;;4.84;83.25
23953;BME280;12163;49.316;6.092;2023-04-08T04:11:27;99938.59;;;4.84;83.26
23953;BME280;12163;49.316;6.092;2023-04-08T04:13:53;99938.59;;;4.84;83.09
23953;BME280;12163;49.316;6.092;2023-04-08T04:16:20;99941.25;;;4.84;83.19
23953;BME280;12163;49.316;6.092;2023-04-08T04:18:47;99947.66;;;4.83;83.78
23953;BME280;12163;49.316;6.092;2023-04-08T04:21:14;99946.88;;;4.82;83.14
23953;BME280;12163;49.316;6.092;2023-04-08T04:23:40;99941.19;;;4.79;83.08
23953;BME280;12163;49.316;6.092;2023-04-08T04:26:08;99951.88;;;4.79;83.54
23953;BME280;12163;49.316;6.092;2023-04-08T04:28:35;99946.53;;;4.79;83.26
23953;BME280;12163;49.316;6.092;2023-04-08T04:31:02;99954.53;;;4.79;83.34
23953;BME280;12163;49.316;6.092;2023-04-08T04:33:29;99949.41;;;4.77;83.36
23953;BME280;12163;49.316;6.092;2023-04-08T04:35:56;99954.75;;;4.77;82.94
23953;BME280;12163;49.316;6.092;2023-04-08T04:38:23;99953.97;;;4.77;83.23
23953;BME280;12163;49.316;6.092;2023-04-08T04:40:49;99959.31;;;4.77;83.19
23953;BME280;12163;49.316;6.092;2023-04-08T04:43:16;99960.94;;;4.78;83.65
23953;BME280;12163;49.316;6.092;2023-04-08T04:45:43;99965.00;;;4.80;83.59
23953;BME280;12163;49.316;6.092;2023-04-08T04:48:10;99955.13;;;4.81;83.46
23953;BME280;12163;49.316;6.092;2023-04-08T04:50:37;99969.53;;;4.80;83.44
23953;BME280;12163;49.316;6.092;2023-04-08T04:53:03;99964.75;;;4.82;83.15
23953;BME280;12163;49.316;6.092;2023-04-08T04:55:30;99974.13;;;4.95;84.21
23953;BME280;12163;49.316;6.092;2023-04-08T04:57:56;99965.41;;;5.61;85.67
23953;BME280;12163;49.316;6.092;2023-04-08T05:00:23;99959.72;;;6.23;85.63
23953;BME280;12163;49.316;6.092;2023-04-08T05:02:49;99957.22;;;6.81;83.54
23953;BME280;12163;49.316;6.092;2023-04-08T05:05:17;99961.31;;;6.83;81.52
23953;BME280;12163;49.316;6.092;2023-04-08T05:07:43;99962.50;;;6.71;80.48
23953;BME280;12163;49.316;6.092;2023-04-08T05:10:10;99967.03;;;6.49;79.50
23953;BME280;12163;49.316;6.092;2023-04-08T05:12:37;99972.13;;;6.29;79.63
23953;BME280;12163;49.316;6.092;2023-04-08T05:15:04;99969.84;;;6.21;79.64
23953;BME280;12163;49.316;6.092;2023-04-08T05:17:31;99980.09;;;6.08;79.07
23953;BME280;12163;49.316;6.092;2023-04-08T05:19:58;99978.00;;;5.93;79.29
23953;BME280;12163;49.316;6.092;2023-04-08T05:22:25;99978.34;;;5.80;79.89
23953;BME280;12163;49.316;6.092;2023-04-08T05:24:51;99985.59;;;5.68;79.53
23953;BME280;12163;49.316;6.092;2023-04-08T05:27:18;99986.66;;;5.67;81.03
23953;BME280;12163;49.316;6.092;2023-04-08T05:29:44;99980.13;;;5.91;80.86
23953;BME280;12163;49.316;6.092;2023-04-08T05:32:11;99976.72;;;5.96;79.98
23953;BME280;12163;49.316;6.092;2023-04-08T05:34:38;99994.56;;;5.90;79.92
23953;BME280;12163;49.316;6.092;2023-04-08T05:37:04;99995.00;;;5.82;79.73
23953;BME280;12163;49.316;6.092;2023-04-08T05:39:31;99989.06;;;5.80;80.21
23953;BME280;12163;49.316;6.092;2023-04-08T05:41:57;99990.50;;;5.88;80.08
23953;BME280;12163;49.316;6.092;2023-04-08T05:44:24;99989.22;;;5.90;79.70
23953;BME280;12163;49.316;6.092;2023-04-08T05:46:50;99986.19;;;6.20;80.83
23953;BME280;12163;49.316;6.092;2023-04-08T05:49:17;99996.59;;;6.54;80.18
23953;BME280;12163;49.316;6.092;2023-04-08T05:51:44;99990.09;;;6.50;78.76
23953;BME280;12163;49.316;6.092;2023-04-08T05:54:11;99998.75;;;6.36;78.12
23953;BME280;12163;49.316;6.092;2023-04-08T05:56:37;99994.22;;;6.20;78.49
23953;BME280;12163;49.316;6.092;2023-04-08T05:59:04;99998.63;;;6.09;78.60
23953;BME280;12163;49.316;6.092;2023-04-08T06:01:30;100001.22;;;6.04;79.44
23953;BME280;12163;49.316;6.092;2023-04-08T06:03:57;100006.03;;;6.02;79.71
23953;BME280;12163;49.316;6.092;2023-04-08T06:06:24;100009.75;;;6.01;80.26
23953;BME280;12163;49.316;6.092;2023-04-08T06:08:51;100008.69;;;6.02;80.69
23953;BME280;12163;49.316;6.092;2023-04-08T06:11:18;100006.81;;;6.03;80.20
23953;BME280;12163;49.316;6.092;2023-04-08T06:13:44;100006.03;;;6.02;80.82
23953;BME280;12163;49.316;6.092;2023-04-08T06:16:12;100011.13;;;6.04;80.56
23953;BME280;12163;49.316;6.092;2023-04-08T06:18:39;100010.88;;;6.05;80.89
23953;BME280;12163;49.316;6.092;2023-04-08T06:21:06;100013.06;;;6.08;81.18
23953;BME280;12163;49.316;6.092;2023-04-08T06:23:33;100004.31;;;6.13;81.58
23953;BME280;12163;49.316;6.092;2023-04-08T06:25:59;100011.09;;;6.20;81.81
23953;BME280;12163;49.316;6.092;2023-04-08T06:28:28;100009.63;;;6.29;81.63
23953;BME280;12163;49.316;6.092;2023-04-08T06:30:54;100014.06;;;6.40;81.89
23953;BME280;12163;49.316;6.092;2023-04-08T06:33:21;100017.72;;;6.51;82.08
23953;BME280;12163;49.316;6.092;2023-04-08T06:35:48;100021.44;;;6.66;82.50
23953;BME280;12163;49.316;6.092;2023-04-08T06:38:14;100019.44;;;6.78;82.11
23953;BME280;12163;49.316;6.092;2023-04-08T06:40:41;100026.06;;;6.92;82.95
23953;BME280;12163;49.316;6.092;2023-04-08T06:43:08;100031.06;;;7.10;82.85
23953;BME280;12163;49.316;6.092;2023-04-08T06:45:34;100022.47;;;7.29;82.98
23953;BME280;12163;49.316;6.092;2023-04-08T06:48:01;100016.19;;;7.45;82.33
23953;BME280;12163;49.316;6.092;2023-04-08T06:50:28;100024.13;;;7.62;82.09
23953;BME280;12163;49.316;6.092;2023-04-08T06:52:54;100020.22;;;7.74;81.69
23953;BME280;12163;49.316;6.092;2023-04-08T06:55:21;100024.91;;;7.89;81.65
23953;BME280;12163;49.316;6.092;2023-04-08T06:57:47;100022.88;;;8.01;81.27
23953;BME280;12163;49.316;6.092;2023-04-08T07:00:14;100022.41;;;8.14;81.12
23953;BME280;12163;49.316;6.092;2023-04-08T07:02:41;100023.09;;;8.26;80.39
23953;BME280;12163;49.316;6.092;2023-04-08T07:05:08;100026.91;;;8.34;79.58
23953;BME280;12163;49.316;6.092;2023-04-08T07:07:34;100027.47;;;8.41;79.15
23953;BME280;12163;49.316;6.092;2023-04-08T07:10:01;100034.53;;;8.47;78.83
23953;BME280;12163;49.316;6.092;2023-04-08T07:12:28;100029.19;;;8.52;78.38
23953;BME280;12163;49.316;6.092;2023-04-08T07:14:54;100033.50;;;8.58;78.17
23953;BME280;12163;49.316;6.092;2023-04-08T07:17:21;100036.22;;;8.63;78.43
23953;BME280;12163;49.316;6.092;2023-04-08T07:19:48;100035.72;;;8.66;77.89
23953;BME280;12163;49.316;6.092;2023-04-08T07:22:14;100033.06;;;8.71;78.18
23953;BME280;12163;49.316;6.092;2023-04-08T07:24:41;100040.84;;;8.73;77.73
23953;BME280;12163;49.316;6.092;2023-04-08T07:27:10;100037.38;;;8.72;77.74
23953;BME280;12163;49.316;6.092;2023-04-08T07:29:38;100039.28;;;8.77;78.00
23953;BME280;12163;49.316;6.092;2023-04-08T07:32:05;100038.75;;;8.80;77.90
23953;BME280;12163;49.316;6.092;2023-04-08T07:34:35;100040.91;;;8.83;77.86
23953;BME280;12163;49.316;6.092;2023-04-08T07:37:02;100044.16;;;8.85;77.97
23953;BME280;12163;49.316;6.092;2023-04-08T07:39:28;100043.88;;;8.86;77.56
23953;BME280;12163;49.316;6.092;2023-04-08T07:41:55;100041.78;;;8.93;77.54
23953;BME280;12163;49.316;6.092;2023-04-08T07:44:22;100051.50;;;8.99;77.36
23953;BME280;12163;49.316;6.092;2023-04-08T07:46:49;100047.19;;;9.03;77.22
23953;BME280;12163;49.316;6.092;2023-04-08T07:49:17;100049.09;;;9.08;76.20
23953;BME280;12163;49.316;6.092;2023-04-08T07:51:43;100056.13;;;9.09;75.94
23953;BME280;12163;49.316;6.092;2023-04-08T07:54:10;100051.03;;;9.12;75.66
23953;BME280;12163;49.316;6.092;2023-04-08T07:56:37;100056.97;;;9.19;75.91
23953;BME280;12163;49.316;6.092;2023-04-08T07:59:05;100051.59;;;9.29;75.92
23953;BME280;12163;49.316;6.092;2023-04-08T08:01:32;100057.56;;;9.36;76.19
23953;BME280;12163;49.316;6.092;2023-04-08T08:04:01;100060.03;;;9.48;75.99
23953;BME280;12163;49.316;6.092;2023-04-08T08:06:29;100066.25;;;9.58;75.74
23953;BME280;12163;49.316;6.092;2023-04-08T08:08:58;100063.84;;;9.67;75.50
23953;BME280;12163;49.316;6.092;2023-04-08T08:11:25;100063.03;;;9.76;75.49
23953;BME280;12163;49.316;6.092;2023-04-08T08:13:54;100067.91;;;9.84;75.19
23953;BME280;12163;49.316;6.092;2023-04-08T08:16:21;100063.34;;;9.95;74.99
23953;BME280;12163;49.316;6.092;2023-04-08T08:18:48;100070.13;;;10.12;74.08
23953;BME280;12163;49.316;6.092;2023-04-08T08:21:14;100069.59;;;10.25;73.24
23953;BME280;12163;49.316;6.092;2023-04-08T08:23:41;100066.31;;;10.38;72.66
23953;BME280;12163;49.316;6.092;2023-04-08T08:26:08;100071.19;;;10.51;72.39
23953;BME280;12163;49.316;6.092;2023-04-08T08:28:36;100082.50;;;10.68;71.79
23953;BME280;12163;49.316;6.092;2023-04-08T08:31:03;100074.38;;;10.78;70.52
23953;BME280;12163;49.316;6.092;2023-04-08T08:33:31;100082.19;;;10.84;69.46
23953;BME280;12163;49.316;6.092;2023-04-08T08:35:58;100072.16;;;10.95;69.54
23953;BME280;12163;49.316;6.092;2023-04-08T08:38:25;100071.03;;;11.06;69.24
23953;BME280;12163;49.316;6.092;2023-04-08T08:40:56;100079.13;;;11.16;69.69
23953;BME280;12163;49.316;6.092;2023-04-08T08:43:23;100076.09;;;11.27;68.87
23953;BME280;12163;49.316;6.092;2023-04-08T08:45:50;100070.34;;;11.44;68.83
23953;BME280;12163;49.316;6.092;2023-04-08T08:48:17;100082.22;;;11.58;68.45
23953;BME280;12163;49.316;6.092;2023-04-08T08:50:44;100084.53;;;11.74;68.32
23953;BME280;12163;49.316;6.092;2023-04-08T08:53:11;100083.06;;;11.91;67.48
23953;BME280;12163;49.316;6.092;2023-04-08T08:55:38;100082.44;;;12.04;66.92
23953;BME280;12163;49.316;6.092;2023-04-08T08:58:28;100083.91;;;12.25;66.29
23953;BME280;12163;49.316;6.092;2023-04-08T09:00:54;100078.34;;;12.40;65.91
23953;BME280;12163;49.316;6.092;2023-04-08T09:03:25;100080.53;;;12.43;64.52
23953;BME280;12163;49.316;6.092;2023-04-08T09:06:00;100080.94;;;12.55;64.79
23953;BME280;12163;49.316;6.092;2023-04-08T09:08:31;100078.16;;;12.65;64.40
23953;BME280;12163;49.316;6.092;2023-04-08T09:11:11;100074.34;;;12.66;63.27
23953;BME280;12163;49.316;6.092;2023-04-08T09:13:38;100074.22;;;12.76;63.99
23953;BME280;12163;49.316;6.092;2023-04-08T09:16:07;100083.91;;;12.82;62.66
23953;BME280;12163;49.316;6.092;2023-04-08T09:18:37;100078.03;;;12.75;62.19
23953;BME280;12163;49.316;6.092;2023-04-08T09:21:05;100081.38;;;12.67;62.38
23953;BME280;12163;49.316;6.092;2023-04-08T09:23:39;100082.03;;;12.54;62.47
23953;BME280;12163;49.316;6.092;2023-04-08T09:26:14;100078.69;;;12.62;62.92
23953;BME280;12163;49.316;6.092;2023-04-08T09:28:43;100076.13;;;12.76;62.83
23953;BME280;12163;49.316;6.092;2023-04-08T09:31:21;100081.16;;;12.87;63.01
23953;BME280;12163;49.316;6.092;2023-04-08T09:33:49;100081.09;;;12.97;61.54
23953;BME280;12163;49.316;6.092;2023-04-08T09:36:17;100075.09;;;13.00;60.88
23953;BME280;12163;49.316;6.092;2023-04-08T09:38:44;100084.03;;;13.01;61.23
23953;BME280;12163;49.316;6.092;2023-04-08T09:41:14;100081.19;;;13.11;61.41
23953;BME280;12163;49.316;6.092;2023-04-08T09:43:46;100079.00;;;13.13;61.68
23953;BME280;12163;49.316;6.092;2023-04-08T09:46:19;100079.59;;;13.10;59.90
23953;BME280;12163;49.316;6.092;2023-04-08T09:49:06;100088.22;;;13.12;60.33
23953;BME280;12163;49.316;6.092;2023-04-08T09:54:54;100083.50;;;13.22;59.75
23953;BME280;12163;49.316;6.092;2023-04-08T09:57:54;100078.66;;;13.19;60.54
23953;BME280;12163;49.316;6.092;2023-04-08T10:01:09;100082.34;;;13.28;59.25
23953;BME280;12163;49.316;6.092;2023-04-08T10:05:53;100090.63;;;13.60;59.40
23953;BME280;12163;49.316;6.092;2023-04-08T10:08:25;100081.09;;;13.81;58.44
23953;BME280;12163;49.316;6.092;2023-04-08T10:10:53;100078.38;;;13.99;57.18
23953;BME280;12163;49.316;6.092;2023-04-08T10:13:20;100090.66;;;14.15;57.60
23953;BME280;12163;49.316;6.092;2023-04-08T10:15:48;100085.41;;;14.37;56.75
23953;BME280;12163;49.316;6.092;2023-04-08T10:20:47;100086.38;;;14.60;55.63
23953;BME280;12163;49.316;6.092;2023-04-08T10:23:16;100088.72;;;14.80;55.02
23953;BME280;12163;49.316;6.092;2023-04-08T10:25:44;100080.31;;;15.08;55.30
23953;BME280;12163;49.316;6.092;2023-04-08T10:30:45;100083.25;;;15.12;53.41
23953;BME280;12163;49.316;6.092;2023-04-08T10:38:19;100085.25;;;14.61;54.07
23953;BME280;12163;49.316;6.092;2023-04-08T10:40:47;100073.63;;;14.42;53.48
23953;BME280;12163;49.316;6.092;2023-04-08T10:43:14;100083.34;;;14.29;54.31
23953;BME280;12163;49.316;6.092;2023-04-08T10:45:42;100079.75;;;14.34;53.37
23953;BME280;12163;49.316;6.092;2023-04-08T10:50:39;100073.88;;;14.91;53.67
23953;BME280;12163;49.316;6.092;2023-04-08T10:53:06;100065.50;;;15.01;53.17
23953;BME280;12163;49.316;6.092;2023-04-08T10:55:34;100074.78;;;15.00;51.95
23953;BME280;12163;49.316;6.092;2023-04-08T10:58:09;100078.19;;;14.92;51.80
23953;BME280;12163;49.316;6.092;2023-04-08T11:00:38;100077.25;;;14.83;52.71
23953;BME280;12163;49.316;6.092;2023-04-08T11:03:07;100076.25;;;14.79;52.88
23953;BME280;12163;49.316;6.092;2023-04-08T11:05:35;100078.06;;;14.70;52.79
23953;BME280;12163;49.316;6.092;2023-04-08T11:08:03;100073.91;;;14.59;53.23
23953;BME280;12163;49.316;6.092;2023-04-08T11:10:32;100076.81;;;14.49;53.28
23953;BME280;12163;49.316;6.092;2023-04-08T11:13:01;100067.31;;;14.46;53.25
23953;BME280;12163;49.316;6.092;2023-04-08T11:15:29;100065.56;;;14.55;53.09
23953;BME280;12163;49.316;6.092;2023-04-08T11:17:56;100072.03;;;14.73;52.96
23953;BME280;12163;49.316;6.092;2023-04-08T11:20:23;100070.56;;;14.62;52.80
23953;BME280;12163;49.316;6.092;2023-04-08T11:22:50;100060.59;;;14.44;52.46
23953;BME280;12163;49.316;6.092;2023-04-08T11:25:17;100067.28;;;14.33;52.84
23953;BME280;12163;49.316;6.092;2023-04-08T11:27:44;100072.50;;;14.29;53.33
23953;BME280;12163;49.316;6.092;2023-04-08T11:30:10;100063.09;;;14.40;53.19
23953;BME280;12163;49.316;6.092;2023-04-08T11:32:37;100064.69;;;14.41;51.96
23953;BME280;12163;49.316;6.092;2023-04-08T11:35:05;100061.06;;;14.32;51.99
23953;BME280;12163;49.316;6.092;2023-04-08T11:37:39;100061.75;;;14.38;52.67
23953;BME280;12163;49.316;6.092;2023-04-08T11:40:08;100052.88;;;14.64;52.73
23953;BME280;12163;49.316;6.092;2023-04-08T11:42:35;100054.13;;;14.85;51.58
23953;BME280;12163;49.316;6.092;2023-04-08T11:45:09;100049.81;;;14.98;51.34
23953;BME280;12163;49.316;6.092;2023-04-08T11:47:36;100041.44;;;15.08;51.30
23953;BME280;12163;49.316;6.092;2023-04-08T11:50:03;100042.03;;;15.05;50.75
23953;BME280;12163;49.316;6.092;2023-04-08T11:53:00;100045.88;;;14.90;50.45
23953;BME280;12163;49.316;6.092;2023-04-08T11:55:30;100046.88;;;14.81;50.91
23953;BME280;12163;49.316;6.092;2023-04-08T11:58:01;100045.47;;;14.70;51.11
23953;BME280;12163;49.316;6.092;2023-04-08T12:00:28;100040.81;;;14.70;50.67
23953;BME280;12163;49.316;6.092;2023-04-08T12:02:55;100041.41;;;14.67;50.49
23953;BME280;12163;49.316;6.092;2023-04-08T12:05:21;100038.59;;;14.86;50.89
23953;BME280;12163;49.316;6.092;2023-04-08T12:07:48;100030.66;;;15.16;49.82
23953;BME280;12163;49.316;6.092;2023-04-08T12:10:15;100022.59;;;15.24;49.38
23953;BME280;12163;49.316;6.092;2023-04-08T12:12:41;100024.81;;;15.22;49.18
23953;BME280;12163;49.316;6.092;2023-04-08T12:15:08;100030.47;;;15.39;50.19
23953;BME280;12163;49.316;6.092;2023-04-08T12:17:36;100022.00;;;15.54;49.58
23953;BME280;12163;49.316;6.092;2023-04-08T12:20:05;100022.25;;;15.66;50.08
23953;BME280;12163;49.316;6.092;2023-04-08T12:22:32;100015.41;;;15.69;49.99
23953;BME280;12163;49.316;6.092;2023-04-08T12:24:59;100023.44;;;15.74;49.73
23953;BME280;12163;49.316;6.092;2023-04-08T12:27:25;100020.06;;;15.90;49.30
23953;BME280;12163;49.316;6.092;2023-04-08T12:29:52;100016.22;;;16.13;48.49
23953;BME280;12163;49.316;6.092;2023-04-08T12:32:18;100009.72;;;16.23;45.66
23953;BME280;12163;49.316;6.092;2023-04-08T12:34:46;100004.72;;;16.38;46.37
23953;BME280;12163;49.316;6.092;2023-04-08T12:37:12;100011.03;;;16.47;45.52
23953;BME280;12163;49.316;6.092;2023-04-08T12:39:39;100008.72;;;16.63;45.95
23953;BME280;12163;49.316;6.092;2023-04-08T12:42:05;100000.97;;;16.87;44.86
23953;BME280;12163;49.316;6.092;2023-04-08T12:44:32;99995.94;;;17.19;44.08
23953;BME280;12163;49.316;6.092;2023-04-08T12:46:59;100001.56;;;17.31;43.18
23953;BME280;12163;49.316;6.092;2023-04-08T12:49:26;99997.53;;;17.20;43.57
23953;BME280;12163;49.316;6.092;2023-04-08T12:51:53;99993.63;;;17.04;44.08
23953;BME280;12163;49.316;6.092;2023-04-08T12:54:20;99994.09;;;16.97;44.71
23953;BME280;12163;49.316;6.092;2023-04-08T12:56:47;99994.28;;;17.09;45.31
23953;BME280;12163;49.316;6.092;2023-04-08T12:59:14;99987.25;;;17.17;43.60
23953;BME280;12163;49.316;6.092;2023-04-08T13:01:41;99985.75;;;16.94;43.83
23953;BME280;12163;49.316;6.092;2023-04-08T13:04:08;99994.56;;;16.91;44.46
23953;BME280;12163;49.316;6.092;2023-04-08T13:06:34;99992.25;;;16.76;44.14
23953;BME280;12163;49.316;6.092;2023-04-08T13:09:01;99987.97;;;16.53;44.54
23953;BME280;12163;49.316;6.092;2023-04-08T13:11:28;99991.09;;;16.38;44.40
23953;BME280;12163;49.316;6.092;2023-04-08T13:13:54;99984.28;;;16.49;44.33
23953;BME280;12163;49.316;6.092;2023-04-08T13:16:21;99975.56;;;16.69;43.83
23953;BME280;12163;49.316;6.092;2023-04-08T13:18:48;99970.53;;;17.01;43.65
23953;BME280;12163;49.316;6.092;2023-04-08T13:21:15;99973.53;;;17.39;43.39
23953;BME280;12163;49.316;6.092;2023-04-08T13:23:41;99974.84;;;17.84;43.24
23953;BME280;12163;49.316;6.092;2023-04-08T13:26:08;99963.84;;;18.18;41.65
23953;BME280;12163;49.316;6.092;2023-04-08T13:28:35;99963.56;;;18.11;40.14
23953;BME280;12163;49.316;6.092;2023-04-08T13:31:19;99972.41;;;17.82;40.06
23953;BME280;12163;49.316;6.092;2023-04-08T13:33:45;99963.28;;;17.44;40.52
23953;BME280;12163;49.316;6.092;2023-04-08T13:36:12;99955.06;;;17.36;40.30